sensor_id;sensor_type;location;lat;lon;timestamp;P1;durP1;ratioP1;P2;durP2;ratioP2
10550;SDS011;5324;50.684;3.862;2023-09-30T00:00:59;7.33;;;4.50;;
10550;SDS011;5324;50.684;3.862;2023-09-30T00:03:25;6.70;;;4.63;;
10550;SDS011;5324;50.684;3.862;2023-09-30T00:05:51;7.00;;;5.00;;
10550;SDS011;5324;50.684;3.862;2023-09-30T00:08:17;9.07;;;5.20;;
10550;SDS011;5324;50.684;3.862;2023-09-30T00:10:43;9.07;;;5.17;;
10550;SDS011;5324;50.684;3.862;2023-09-30T00:13:10;8.30;;;4.97;;
10550;SDS011;5324;50.684;3.862;2023-09-30T00:15:37;9.53;;;4.83;;
10550;SDS011;5324;50.684;3.862;2023-09-30T00:18:03;7.43;;;4.63;;
10550;SDS011;5324;50.684;3.862;2023-09-30T00:20:30;8.03;;;5.00;;
10550;SDS011;5324;50.684;3.862;2023-09-30T00:22:56;6.77;;;4.87;;
10550;SDS011;5324;50.684;3.862;2023-09-30T00:25:22;7.37;;;4.80;;
10550;SDS011;5324;50.684;3.862;2023-09-30T00:27:48;9.20;;;4.77;;
10550;SDS011;5324;50.684;3.862;2023-09-30T00:30:14;9.63;;;5.07;;
10550;SDS011;5324;50.684;3.862;2023-09-30T00:32:40;9.83;;;5.50;;
10550;SDS011;5324;50.684;3.862;2023-09-30T00:35:06;8.63;;;5.27;;
10550;SDS011;5324;50.684;3.862;2023-09-30T00:37:36;9.00;;;5.07;;
10550;SDS011;5324;50.684;3.862;2023-09-30T00:40:02;8.13;;;4.83;;
10550;SDS011;5324;50.684;3.862;2023-09-30T00:42:28;8.13;;;5.27;;
10550;SDS011;5324;50.684;3.862;2023-09-30T00:44:54;7.70;;;4.93;;
10550;SDS011;5324;50.684;3.862;2023-09-30T00:47:20;10.37;;;5.27;;
10550;SDS011;5324;50.684;3.862;2023-09-30T00:49:46;11.37;;;4.80;;
10550;SDS011;5324;50.684;3.862;2023-09-30T00:52:12;8.17;;;4.60;;
10550;SDS011;5324;50.684;3.862;2023-09-30T00:54:39;6.10;;;4.50;;
10550;SDS011;5324;50.684;3.862;2023-09-30T00:57:05;6.70;;;4.67;;
10550;SDS011;5324;50.684;3.862;2023-09-30T00:59:31;6.70;;;5.03;;
10550;SDS011;5324;50.684;3.862;2023-09-30T01:01:58;6.57;;;4.50;;
10550;SDS011;5324;50.684;3.862;2023-09-30T01:04:28;9.60;;;4.80;;
10550;SDS011;5324;50.684;3.862;2023-09-30T01:06:54;6.43;;;4.47;;
10550;SDS011;5324;50.684;3.862;2023-09-30T01:09:22;5.50;;;4.30;;
10550;SDS011;5324;50.684;3.862;2023-09-30T01:11:49;9.40;;;5.10;;
10550;SDS011;5324;50.684;3.862;2023-09-30T01:14:28;7.47;;;5.00;;
10550;SDS011;5324;50.684;3.862;2023-09-30T01:16:54;9.27;;;5.13;;
10550;SDS011;5324;50.684;3.862;2023-09-30T01:19:20;6.70;;;4.30;;
10550;SDS011;5324;50.684;3.862;2023-09-30T01:21:56;8.13;;;4.20;;
10550;SDS011;5324;50.684;3.862;2023-09-30T01:24:26;6.83;;;4.50;;
10550;SDS011;5324;50.684;3.862;2023-09-30T01:26:52;7.50;;;5.00;;
10550;SDS011;5324;50.684;3.862;2023-09-30T01:29:18;9.37;;;4.67;;
10550;SDS011;5324;50.684;3.862;2023-09-30T01:31:45;8.37;;;4.83;;
10550;SDS011;5324;50.684;3.862;2023-09-30T01:34:13;10.00;;;5.17;;
10550;SDS011;5324;50.684;3.862;2023-09-30T01:36:40;8.63;;;4.23;;
10550;SDS011;5324;50.684;3.862;2023-09-30T01:39:06;6.57;;;4.73;;
10550;SDS011;5324;50.684;3.862;2023-09-30T01:41:32;10.70;;;5.27;;
10550;SDS011;5324;50.684;3.862;2023-09-30T01:43:58;6.57;;;4.50;;
10550;SDS011;5324;50.684;3.862;2023-09-30T01:46:24;9.13;;;4.83;;
10550;SDS011;5324;50.684;3.862;2023-09-30T01:48:50;10.40;;;5.10;;
10550;SDS011;5324;50.684;3.862;2023-09-30T01:51:16;7.90;;;5.13;;
10550;SDS011;5324;50.684;3.862;2023-09-30T01:53:42;7.73;;;4.83;;
10550;SDS011;5324;50.684;3.862;2023-09-30T01:56:08;7.10;;;4.77;;
10550;SDS011;5324;50.684;3.862;2023-09-30T01:58:34;6.97;;;4.40;;
10550;SDS011;5324;50.684;3.862;2023-09-30T02:01:02;8.90;;;5.10;;
10550;SDS011;5324;50.684;3.862;2023-09-30T02:03:29;8.00;;;5.00;;
10550;SDS011;5324;50.684;3.862;2023-09-30T02:05:58;7.73;;;4.50;;
10550;SDS011;5324;50.684;3.862;2023-09-30T02:08:24;8.13;;;4.90;;
10550;SDS011;5324;50.684;3.862;2023-09-30T02:10:50;8.00;;;4.83;;
10550;SDS011;5324;50.684;3.862;2023-09-30T02:13:17;8.83;;;5.20;;
10550;SDS011;5324;50.684;3.862;2023-09-30T02:15:43;11.17;;;5.67;;
10550;SDS011;5324;50.684;3.862;2023-09-30T02:18:12;10.40;;;4.97;;
10550;SDS011;5324;50.684;3.862;2023-09-30T02:20:39;9.40;;;5.43;;
10550;SDS011;5324;50.684;3.862;2023-09-30T02:23:06;6.53;;;4.37;;
10550;SDS011;5324;50.684;3.862;2023-09-30T02:25:32;6.93;;;4.27;;
10550;SDS011;5324;50.684;3.862;2023-09-30T02:27:58;7.53;;;4.83;;
10550;SDS011;5324;50.684;3.862;2023-09-30T02:30:25;11.73;;;5.00;;
10550;SDS011;5324;50.684;3.862;2023-09-30T02:32:52;9.00;;;5.03;;
10550;SDS011;5324;50.684;3.862;2023-09-30T02:35:18;11.87;;;4.97;;
10550;SDS011;5324;50.684;3.862;2023-09-30T02:37:45;9.17;;;5.00;;
10550;SDS011;5324;50.684;3.862;2023-09-30T02:40:11;8.27;;;4.80;;
10550;SDS011;5324;50.684;3.862;2023-09-30T02:42:40;8.10;;;4.60;;
10550;SDS011;5324;50.684;3.862;2023-09-30T02:45:06;9.47;;;4.80;;
10550;SDS011;5324;50.684;3.862;2023-09-30T02:47:36;9.23;;;4.57;;
10550;SDS011;5324;50.684;3.862;2023-09-30T02:50:03;7.87;;;4.73;;
10550;SDS011;5324;50.684;3.862;2023-09-30T02:52:29;9.50;;;4.67;;
10550;SDS011;5324;50.684;3.862;2023-09-30T02:54:56;9.10;;;4.70;;
10550;SDS011;5324;50.684;3.862;2023-09-30T02:57:22;8.13;;;4.27;;
10550;SDS011;5324;50.684;3.862;2023-09-30T02:59:49;6.87;;;4.67;;
10550;SDS011;5324;50.684;3.862;2023-09-30T03:02:16;6.83;;;4.20;;
10550;SDS011;5324;50.684;3.862;2023-09-30T03:04:43;9.60;;;4.70;;
10550;SDS011;5324;50.684;3.862;2023-09-30T03:07:09;8.20;;;4.53;;
10550;SDS011;5324;50.684;3.862;2023-09-30T03:09:36;7.80;;;5.23;;
10550;SDS011;5324;50.684;3.862;2023-09-30T03:12:03;8.20;;;4.80;;
10550;SDS011;5324;50.684;3.862;2023-09-30T03:14:29;7.17;;;4.73;;
10550;SDS011;5324;50.684;3.862;2023-09-30T03:16:56;7.73;;;4.33;;
10550;SDS011;5324;50.684;3.862;2023-09-30T03:19:22;9.00;;;4.67;;
10550;SDS011;5324;50.684;3.862;2023-09-30T03:21:49;7.10;;;4.93;;
10550;SDS011;5324;50.684;3.862;2023-09-30T03:24:15;7.90;;;4.67;;
10550;SDS011;5324;50.684;3.862;2023-09-30T03:26:41;7.60;;;4.93;;
10550;SDS011;5324;50.684;3.862;2023-09-30T03:29:09;8.40;;;4.30;;
10550;SDS011;5324;50.684;3.862;2023-09-30T03:31:35;8.77;;;4.93;;
10550;SDS011;5324;50.684;3.862;2023-09-30T03:34:04;14.83;;;4.53;;
10550;SDS011;5324;50.684;3.862;2023-09-30T03:36:31;9.50;;;4.80;;
10550;SDS011;5324;50.684;3.862;2023-09-30T03:38:57;6.53;;;4.77;;
10550;SDS011;5324;50.684;3.862;2023-09-30T03:41:32;9.17;;;4.90;;
10550;SDS011;5324;50.684;3.862;2023-09-30T03:43:58;6.90;;;4.20;;
10550;SDS011;5324;50.684;3.862;2023-09-30T03:46:24;8.27;;;5.17;;
10550;SDS011;5324;50.684;3.862;2023-09-30T03:48:51;6.80;;;4.43;;
10550;SDS011;5324;50.684;3.862;2023-09-30T03:51:17;8.77;;;5.00;;
10550;SDS011;5324;50.684;3.862;2023-09-30T03:53:45;6.60;;;3.97;;
10550;SDS011;5324;50.684;3.862;2023-09-30T03:56:11;10.10;;;5.10;;
10550;SDS011;5324;50.684;3.862;2023-09-30T03:58:41;8.07;;;4.10;;
10550;SDS011;5324;50.684;3.862;2023-09-30T04:01:10;8.07;;;4.70;;
10550;SDS011;5324;50.684;3.862;2023-09-30T04:03:37;7.03;;;3.97;;
10550;SDS011;5324;50.684;3.862;2023-09-30T04:06:06;6.30;;;4.10;;
10550;SDS011;5324;50.684;3.862;2023-09-30T04:08:33;6.47;;;3.53;;
10550;SDS011;5324;50.684;3.862;2023-09-30T04:10:59;6.23;;;3.80;;
10550;SDS011;5324;50.684;3.862;2023-09-30T04:13:26;9.20;;;4.53;;
10550;SDS011;5324;50.684;3.862;2023-09-30T04:15:52;7.63;;;3.93;;
10550;SDS011;5324;50.684;3.862;2023-09-30T04:18:18;9.73;;;4.07;;
10550;SDS011;5324;50.684;3.862;2023-09-30T04:20:46;7.30;;;4.30;;
10550;SDS011;5324;50.684;3.862;2023-09-30T04:23:12;9.10;;;4.73;;
10550;SDS011;5324;50.684;3.862;2023-09-30T04:25:39;6.53;;;3.87;;
10550;SDS011;5324;50.684;3.862;2023-09-30T04:28:05;9.83;;;4.23;;
10550;SDS011;5324;50.684;3.862;2023-09-30T04:30:33;8.90;;;3.87;;
10550;SDS011;5324;50.684;3.862;2023-09-30T04:32:59;9.80;;;4.30;;
10550;SDS011;5324;50.684;3.862;2023-09-30T04:35:26;7.40;;;4.00;;
10550;SDS011;5324;50.684;3.862;2023-09-30T04:37:52;8.07;;;4.77;;
10550;SDS011;5324;50.684;3.862;2023-09-30T04:40:18;7.27;;;4.07;;
10550;SDS011;5324;50.684;3.862;2023-09-30T04:42:48;9.43;;;4.23;;
10550;SDS011;5324;50.684;3.862;2023-09-30T04:45:14;9.43;;;3.90;;
10550;SDS011;5324;50.684;3.862;2023-09-30T04:47:49;7.07;;;4.07;;
10550;SDS011;5324;50.684;3.862;2023-09-30T04:50:15;6.93;;;3.97;;
10550;SDS011;5324;50.684;3.862;2023-09-30T04:52:42;10.03;;;4.23;;
10550;SDS011;5324;50.684;3.862;2023-09-30T04:55:10;7.17;;;4.03;;
10550;SDS011;5324;50.684;3.862;2023-09-30T04:57:41;7.30;;;3.73;;
10550;SDS011;5324;50.684;3.862;2023-09-30T05:00:09;8.57;;;4.30;;
10550;SDS011;5324;50.684;3.862;2023-09-30T05:02:36;10.47;;;3.40;;
10550;SDS011;5324;50.684;3.862;2023-09-30T05:05:02;7.00;;;3.53;;
10550;SDS011;5324;50.684;3.862;2023-09-30T05:07:31;8.73;;;3.40;;
10550;SDS011;5324;50.684;3.862;2023-09-30T05:09:57;7.93;;;3.73;;
10550;SDS011;5324;50.684;3.862;2023-09-30T05:12:24;9.27;;;4.17;;
10550;SDS011;5324;50.684;3.862;2023-09-30T05:14:50;8.30;;;4.10;;
10550;SDS011;5324;50.684;3.862;2023-09-30T05:17:17;7.50;;;3.50;;
10550;SDS011;5324;50.684;3.862;2023-09-30T05:19:43;8.20;;;3.33;;
10550;SDS011;5324;50.684;3.862;2023-09-30T05:22:09;6.23;;;3.40;;
10550;SDS011;5324;50.684;3.862;2023-09-30T05:24:35;6.93;;;3.50;;
10550;SDS011;5324;50.684;3.862;2023-09-30T05:27:01;8.67;;;3.40;;
10550;SDS011;5324;50.684;3.862;2023-09-30T05:29:27;11.00;;;3.63;;
10550;SDS011;5324;50.684;3.862;2023-09-30T05:31:53;8.33;;;3.87;;
10550;SDS011;5324;50.684;3.862;2023-09-30T05:34:19;8.83;;;3.63;;
10550;SDS011;5324;50.684;3.862;2023-09-30T05:36:45;7.47;;;3.43;;
10550;SDS011;5324;50.684;3.862;2023-09-30T05:39:11;7.17;;;3.70;;
10550;SDS011;5324;50.684;3.862;2023-09-30T05:41:38;8.20;;;3.80;;
10550;SDS011;5324;50.684;3.862;2023-09-30T05:44:04;9.63;;;3.67;;
10550;SDS011;5324;50.684;3.862;2023-09-30T05:46:30;12.10;;;3.80;;
10550;SDS011;5324;50.684;3.862;2023-09-30T05:48:56;9.93;;;3.70;;
10550;SDS011;5324;50.684;3.862;2023-09-30T05:51:22;6.20;;;3.40;;
10550;SDS011;5324;50.684;3.862;2023-09-30T05:53:49;6.03;;;3.13;;
10550;SDS011;5324;50.684;3.862;2023-09-30T05:56:15;5.50;;;2.90;;
10550;SDS011;5324;50.684;3.862;2023-09-30T05:58:44;7.03;;;2.93;;
10550;SDS011;5324;50.684;3.862;2023-09-30T06:01:10;7.57;;;3.37;;
10550;SDS011;5324;50.684;3.862;2023-09-30T06:03:37;4.77;;;2.43;;
10550;SDS011;5324;50.684;3.862;2023-09-30T06:06:15;5.87;;;3.33;;
10550;SDS011;5324;50.684;3.862;2023-09-30T06:08:44;7.47;;;3.63;;
10550;SDS011;5324;50.684;3.862;2023-09-30T06:11:17;6.90;;;2.83;;
10550;SDS011;5324;50.684;3.862;2023-09-30T06:13:44;5.97;;;3.20;;
10550;SDS011;5324;50.684;3.862;2023-09-30T06:16:11;5.63;;;3.20;;
10550;SDS011;5324;50.684;3.862;2023-09-30T06:18:37;5.90;;;3.40;;
10550;SDS011;5324;50.684;3.862;2023-09-30T06:21:03;7.57;;;3.17;;
10550;SDS011;5324;50.684;3.862;2023-09-30T06:23:30;6.77;;;2.80;;
10550;SDS011;5324;50.684;3.862;2023-09-30T06:25:56;7.00;;;2.83;;
10550;SDS011;5324;50.684;3.862;2023-09-30T06:28:22;8.33;;;3.37;;
10550;SDS011;5324;50.684;3.862;2023-09-30T06:30:54;5.00;;;2.90;;
10550;SDS011;5324;50.684;3.862;2023-09-30T06:33:21;6.40;;;3.10;;
10550;SDS011;5324;50.684;3.862;2023-09-30T06:35:47;7.13;;;3.10;;
10550;SDS011;5324;50.684;3.862;2023-09-30T06:38:19;7.27;;;3.27;;
10550;SDS011;5324;50.684;3.862;2023-09-30T06:40:45;5.07;;;2.80;;
10550;SDS011;5324;50.684;3.862;2023-09-30T06:43:13;6.47;;;2.87;;
10550;SDS011;5324;50.684;3.862;2023-09-30T06:45:42;7.17;;;2.97;;
10550;SDS011;5324;50.684;3.862;2023-09-30T06:48:10;7.17;;;2.90;;
10550;SDS011;5324;50.684;3.862;2023-09-30T06:50:43;9.30;;;3.23;;
10550;SDS011;5324;50.684;3.862;2023-09-30T06:53:09;6.77;;;3.10;;
10550;SDS011;5324;50.684;3.862;2023-09-30T06:55:38;8.70;;;3.40;;
10550;SDS011;5324;50.684;3.862;2023-09-30T06:58:05;5.83;;;2.93;;
10550;SDS011;5324;50.684;3.862;2023-09-30T07:00:33;5.97;;;2.73;;
10550;SDS011;5324;50.684;3.862;2023-09-30T07:03:00;6.93;;;3.30;;
10550;SDS011;5324;50.684;3.862;2023-09-30T07:05:26;6.97;;;3.00;;
10550;SDS011;5324;50.684;3.862;2023-09-30T07:07:55;8.17;;;3.70;;
10550;SDS011;5324;50.684;3.862;2023-09-30T07:10:21;8.80;;;3.23;;
10550;SDS011;5324;50.684;3.862;2023-09-30T07:12:47;6.30;;;2.97;;
10550;SDS011;5324;50.684;3.862;2023-09-30T07:15:13;8.87;;;3.63;;
10550;SDS011;5324;50.684;3.862;2023-09-30T07:17:40;9.20;;;3.57;;
10550;SDS011;5324;50.684;3.862;2023-09-30T07:20:06;6.50;;;2.93;;
10550;SDS011;5324;50.684;3.862;2023-09-30T07:22:34;6.90;;;3.20;;
10550;SDS011;5324;50.684;3.862;2023-09-30T07:25:01;8.27;;;2.77;;
10550;SDS011;5324;50.684;3.862;2023-09-30T07:27:28;9.47;;;3.10;;
10550;SDS011;5324;50.684;3.862;2023-09-30T07:29:54;8.10;;;3.30;;
10550;SDS011;5324;50.684;3.862;2023-09-30T07:32:20;5.80;;;3.13;;
10550;SDS011;5324;50.684;3.862;2023-09-30T07:34:49;8.50;;;3.07;;
10550;SDS011;5324;50.684;3.862;2023-09-30T07:37:16;7.53;;;2.83;;
10550;SDS011;5324;50.684;3.862;2023-09-30T07:39:43;6.97;;;3.07;;
10550;SDS011;5324;50.684;3.862;2023-09-30T07:42:10;10.23;;;3.40;;
10550;SDS011;5324;50.684;3.862;2023-09-30T07:44:36;9.10;;;3.60;;
10550;SDS011;5324;50.684;3.862;2023-09-30T07:47:05;9.23;;;3.63;;
10550;SDS011;5324;50.684;3.862;2023-09-30T07:49:31;10.87;;;3.63;;
10550;SDS011;5324;50.684;3.862;2023-09-30T07:51:57;5.87;;;3.23;;
10550;SDS011;5324;50.684;3.862;2023-09-30T07:54:24;7.00;;;3.23;;
10550;SDS011;5324;50.684;3.862;2023-09-30T07:56:50;8.77;;;3.43;;
10550;SDS011;5324;50.684;3.862;2023-09-30T07:59:16;6.47;;;3.20;;
10550;SDS011;5324;50.684;3.862;2023-09-30T08:01:42;8.13;;;3.10;;
10550;SDS011;5324;50.684;3.862;2023-09-30T08:04:08;10.57;;;3.50;;
10550;SDS011;5324;50.684;3.862;2023-09-30T08:06:34;9.00;;;3.60;;
10550;SDS011;5324;50.684;3.862;2023-09-30T08:09:00;8.73;;;3.10;;
10550;SDS011;5324;50.684;3.862;2023-09-30T08:11:28;8.83;;;3.67;;
10550;SDS011;5324;50.684;3.862;2023-09-30T08:13:56;7.97;;;3.33;;
10550;SDS011;5324;50.684;3.862;2023-09-30T08:16:24;9.00;;;3.87;;
10550;SDS011;5324;50.684;3.862;2023-09-30T08:18:50;9.37;;;3.10;;
10550;SDS011;5324;50.684;3.862;2023-09-30T08:21:16;9.53;;;3.87;;
10550;SDS011;5324;50.684;3.862;2023-09-30T08:23:42;8.90;;;3.13;;
10550;SDS011;5324;50.684;3.862;2023-09-30T08:26:09;8.03;;;3.10;;
10550;SDS011;5324;50.684;3.862;2023-09-30T08:28:35;6.07;;;3.17;;
10550;SDS011;5324;50.684;3.862;2023-09-30T08:31:01;11.37;;;4.03;;
10550;SDS011;5324;50.684;3.862;2023-09-30T08:33:28;8.73;;;3.57;;
10550;SDS011;5324;50.684;3.862;2023-09-30T08:35:55;10.80;;;4.17;;
10550;SDS011;5324;50.684;3.862;2023-09-30T08:38:23;8.13;;;3.30;;
10550;SDS011;5324;50.684;3.862;2023-09-30T08:40:50;7.43;;;3.33;;
10550;SDS011;5324;50.684;3.862;2023-09-30T08:43:18;6.63;;;3.47;;
10550;SDS011;5324;50.684;3.862;2023-09-30T08:45:48;9.87;;;3.70;;
10550;SDS011;5324;50.684;3.862;2023-09-30T08:48:16;10.63;;;4.17;;
10550;SDS011;5324;50.684;3.862;2023-09-30T08:50:43;14.13;;;3.90;;
10550;SDS011;5324;50.684;3.862;2023-09-30T08:53:09;11.20;;;4.33;;
10550;SDS011;5324;50.684;3.862;2023-09-30T08:55:37;9.80;;;3.97;;
10550;SDS011;5324;50.684;3.862;2023-09-30T08:58:03;11.33;;;4.40;;
10550;SDS011;5324;50.684;3.862;2023-09-30T09:00:30;8.60;;;3.50;;
10550;SDS011;5324;50.684;3.862;2023-09-30T09:02:56;10.47;;;4.73;;
10550;SDS011;5324;50.684;3.862;2023-09-30T09:05:22;11.40;;;3.67;;
10550;SDS011;5324;50.684;3.862;2023-09-30T09:07:48;12.20;;;4.73;;
10550;SDS011;5324;50.684;3.862;2023-09-30T09:10:15;10.30;;;4.03;;
10550;SDS011;5324;50.684;3.862;2023-09-30T09:12:41;12.65;;;4.68;;
10550;SDS011;5324;50.684;3.862;2023-09-30T09:15:08;14.57;;;4.67;;
10550;SDS011;5324;50.684;3.862;2023-09-30T09:17:45;13.27;;;4.43;;
10550;SDS011;5324;50.684;3.862;2023-09-30T09:20:19;15.90;;;4.50;;
10550;SDS011;5324;50.684;3.862;2023-09-30T09:22:46;9.87;;;4.67;;
10550;SDS011;5324;50.684;3.862;2023-09-30T09:25:12;12.07;;;4.20;;
10550;SDS011;5324;50.684;3.862;2023-09-30T09:27:39;8.75;;;3.97;;
10550;SDS011;5324;50.684;3.862;2023-09-30T09:33:02;10.20;;;4.63;;
10550;SDS011;5324;50.684;3.862;2023-09-30T09:35:29;11.77;;;4.17;;
10550;SDS011;5324;50.684;3.862;2023-09-30T09:40:24;10.25;;;3.85;;
10550;SDS011;5324;50.684;3.862;2023-09-30T09:42:52;12.07;;;4.40;;
10550;SDS011;5324;50.684;3.862;2023-09-30T09:45:25;6.80;;;3.35;;
10550;SDS011;5324;50.684;3.862;2023-09-30T09:47:52;11.18;;;4.05;;
10550;SDS011;5324;50.684;3.862;2023-09-30T09:50:18;9.75;;;3.63;;
10550;SDS011;5324;50.684;3.862;2023-09-30T09:52:47;11.05;;;3.65;;
10550;SDS011;5324;50.684;3.862;2023-09-30T09:55:15;14.93;;;4.20;;
10550;SDS011;5324;50.684;3.862;2023-09-30T09:57:43;13.35;;;4.35;;
10550;SDS011;5324;50.684;3.862;2023-09-30T10:00:11;10.23;;;4.15;;
10550;SDS011;5324;50.684;3.862;2023-09-30T10:02:39;12.02;;;3.55;;
10550;SDS011;5324;50.684;3.862;2023-09-30T10:05:06;13.90;;;4.22;;
10550;SDS011;5324;50.684;3.862;2023-09-30T10:07:41;10.75;;;3.85;;
10550;SDS011;5324;50.684;3.862;2023-09-30T10:10:10;8.82;;;3.33;;
10550;SDS011;5324;50.684;3.862;2023-09-30T10:12:38;11.10;;;3.92;;
10550;SDS011;5324;50.684;3.862;2023-09-30T10:18:05;13.52;;;3.78;;
10550;SDS011;5324;50.684;3.862;2023-09-30T10:20:35;11.00;;;4.10;;
10550;SDS011;5324;50.684;3.862;2023-09-30T10:25:45;12.55;;;4.07;;
10550;SDS011;5324;50.684;3.862;2023-09-30T10:36:33;13.10;;;4.18;;
10550;SDS011;5324;50.684;3.862;2023-09-30T10:38:59;8.07;;;3.42;;
10550;SDS011;5324;50.684;3.862;2023-09-30T10:46:54;11.05;;;3.17;;
10550;SDS011;5324;50.684;3.862;2023-09-30T10:51:56;9.90;;;3.80;;
10550;SDS011;5324;50.684;3.862;2023-09-30T10:54:30;9.77;;;3.42;;
10550;SDS011;5324;50.684;3.862;2023-09-30T10:56:56;9.63;;;3.47;;
10550;SDS011;5324;50.684;3.862;2023-09-30T10:59:33;13.40;;;3.88;;
10550;SDS011;5324;50.684;3.862;2023-09-30T11:02:00;12.75;;;3.90;;
10550;SDS011;5324;50.684;3.862;2023-09-30T11:04:26;12.70;;;4.00;;
10550;SDS011;5324;50.684;3.862;2023-09-30T11:06:53;9.98;;;2.95;;
10550;SDS011;5324;50.684;3.862;2023-09-30T11:09:20;10.32;;;3.40;;
10550;SDS011;5324;50.684;3.862;2023-09-30T11:11:47;9.40;;;3.20;;
10550;SDS011;5324;50.684;3.862;2023-09-30T11:16:43;12.70;;;3.30;;
10550;SDS011;5324;50.684;3.862;2023-09-30T11:19:09;12.40;;;3.50;;
10550;SDS011;5324;50.684;3.862;2023-09-30T11:21:36;11.32;;;3.67;;
10550;SDS011;5324;50.684;3.862;2023-09-30T11:24:02;9.32;;;3.20;;
10550;SDS011;5324;50.684;3.862;2023-09-30T11:26:29;8.05;;;3.22;;
10550;SDS011;5324;50.684;3.862;2023-09-30T11:29:04;6.45;;;2.90;;
10550;SDS011;5324;50.684;3.862;2023-09-30T11:31:30;9.80;;;3.17;;
10550;SDS011;5324;50.684;3.862;2023-09-30T11:34:00;9.70;;;3.22;;
10550;SDS011;5324;50.684;3.862;2023-09-30T11:36:33;8.52;;;2.78;;
10550;SDS011;5324;50.684;3.862;2023-09-30T11:38:59;9.55;;;3.05;;
10550;SDS011;5324;50.684;3.862;2023-09-30T11:41:38;8.00;;;2.70;;
10550;SDS011;5324;50.684;3.862;2023-09-30T11:44:08;5.55;;;2.65;;
10550;SDS011;5324;50.684;3.862;2023-09-30T11:46:49;8.68;;;2.75;;
10550;SDS011;5324;50.684;3.862;2023-09-30T11:49:24;7.55;;;2.65;;
10550;SDS011;5324;50.684;3.862;2023-09-30T11:51:52;12.93;;;2.85;;
10550;SDS011;5324;50.684;3.862;2023-09-30T11:54:18;10.38;;;3.75;;
10550;SDS011;5324;50.684;3.862;2023-09-30T11:56:44;9.98;;;2.83;;
10550;SDS011;5324;50.684;3.862;2023-09-30T11:59:12;7.60;;;2.65;;
10550;SDS011;5324;50.684;3.862;2023-09-30T12:01:38;9.73;;;3.00;;
10550;SDS011;5324;50.684;3.862;2023-09-30T12:04:04;7.80;;;3.03;;
10550;SDS011;5324;50.684;3.862;2023-09-30T12:06:31;11.90;;;3.03;;
10550;SDS011;5324;50.684;3.862;2023-09-30T12:08:59;9.10;;;3.17;;
10550;SDS011;5324;50.684;3.862;2023-09-30T12:11:25;6.63;;;2.60;;
10550;SDS011;5324;50.684;3.862;2023-09-30T12:13:51;7.45;;;2.67;;
10550;SDS011;5324;50.684;3.862;2023-09-30T12:16:17;5.07;;;2.45;;
10550;SDS011;5324;50.684;3.862;2023-09-30T12:18:45;5.57;;;2.60;;
10550;SDS011;5324;50.684;3.862;2023-09-30T12:21:11;8.07;;;3.08;;
10550;SDS011;5324;50.684;3.862;2023-09-30T12:23:39;4.95;;;2.38;;
10550;SDS011;5324;50.684;3.862;2023-09-30T12:26:05;7.80;;;2.78;;
10550;SDS011;5324;50.684;3.862;2023-09-30T12:28:32;7.10;;;2.67;;
10550;SDS011;5324;50.684;3.862;2023-09-30T12:30:58;12.60;;;3.05;;
10550;SDS011;5324;50.684;3.862;2023-09-30T12:33:27;8.75;;;3.03;;
10550;SDS011;5324;50.684;3.862;2023-09-30T12:35:53;8.63;;;2.70;;
10550;SDS011;5324;50.684;3.862;2023-09-30T12:38:19;11.40;;;3.15;;
10550;SDS011;5324;50.684;3.862;2023-09-30T12:40:45;5.75;;;2.63;;
10550;SDS011;5324;50.684;3.862;2023-09-30T12:43:11;7.43;;;2.58;;
10550;SDS011;5324;50.684;3.862;2023-09-30T12:45:37;6.22;;;2.60;;
10550;SDS011;5324;50.684;3.862;2023-09-30T12:48:03;7.43;;;2.70;;
10550;SDS011;5324;50.684;3.862;2023-09-30T12:50:30;9.27;;;3.30;;
10550;SDS011;5324;50.684;3.862;2023-09-30T12:52:56;10.30;;;3.00;;
10550;SDS011;5324;50.684;3.862;2023-09-30T12:55:23;10.68;;;2.65;;
10550;SDS011;5324;50.684;3.862;2023-09-30T12:57:49;5.05;;;2.35;;
10550;SDS011;5324;50.684;3.862;2023-09-30T13:00:15;4.82;;;2.25;;
10550;SDS011;5324;50.684;3.862;2023-09-30T13:02:41;8.50;;;3.67;;
10550;SDS011;5324;50.684;3.862;2023-09-30T13:05:08;8.40;;;3.05;;
10550;SDS011;5324;50.684;3.862;2023-09-30T13:07:34;6.75;;;2.45;;
10550;SDS011;5324;50.684;3.862;2023-09-30T13:10:00;7.68;;;2.60;;
10550;SDS011;5324;50.684;3.862;2023-09-30T13:12:26;4.85;;;2.20;;
10550;SDS011;5324;50.684;3.862;2023-09-30T13:14:52;6.40;;;2.40;;
10550;SDS011;5324;50.684;3.862;2023-09-30T13:17:21;4.45;;;2.05;;
10550;SDS011;5324;50.684;3.862;2023-09-30T13:19:47;5.50;;;2.72;;
10550;SDS011;5324;50.684;3.862;2023-09-30T13:22:13;7.55;;;2.47;;
10550;SDS011;5324;50.684;3.862;2023-09-30T13:24:41;7.88;;;2.67;;
10550;SDS011;5324;50.684;3.862;2023-09-30T13:27:07;5.47;;;2.47;;
10550;SDS011;5324;50.684;3.862;2023-09-30T13:29:34;7.57;;;2.63;;
10550;SDS011;5324;50.684;3.862;2023-09-30T13:32:00;7.95;;;2.45;;
10550;SDS011;5324;50.684;3.862;2023-09-30T13:34:26;5.72;;;2.50;;
10550;SDS011;5324;50.684;3.862;2023-09-30T13:36:54;6.65;;;2.15;;
10550;SDS011;5324;50.684;3.862;2023-09-30T13:39:21;6.15;;;2.42;;
10550;SDS011;5324;50.684;3.862;2023-09-30T13:41:49;7.55;;;2.60;;
10550;SDS011;5324;50.684;3.862;2023-09-30T13:44:15;5.50;;;2.50;;
10550;SDS011;5324;50.684;3.862;2023-09-30T13:46:41;5.70;;;2.20;;
10550;SDS011;5324;50.684;3.862;2023-09-30T13:49:07;6.20;;;2.58;;
10550;SDS011;5324;50.684;3.862;2023-09-30T13:51:33;6.22;;;2.60;;
10550;SDS011;5324;50.684;3.862;2023-09-30T13:53:59;8.15;;;2.60;;
10550;SDS011;5324;50.684;3.862;2023-09-30T13:56:26;7.50;;;2.70;;
10550;SDS011;5324;50.684;3.862;2023-09-30T13:58:52;8.20;;;2.83;;
10550;SDS011;5324;50.684;3.862;2023-09-30T14:01:18;4.10;;;2.20;;
10550;SDS011;5324;50.684;3.862;2023-09-30T14:03:45;4.70;;;2.25;;
10550;SDS011;5324;50.684;3.862;2023-09-30T14:06:12;7.35;;;2.50;;
10550;SDS011;5324;50.684;3.862;2023-09-30T14:08:39;5.78;;;2.30;;
10550;SDS011;5324;50.684;3.862;2023-09-30T14:11:07;4.90;;;2.10;;
10550;SDS011;5324;50.684;3.862;2023-09-30T14:13:33;9.40;;;2.35;;
10550;SDS011;5324;50.684;3.862;2023-09-30T14:16:00;7.60;;;2.58;;
10550;SDS011;5324;50.684;3.862;2023-09-30T14:18:26;6.47;;;2.42;;
10550;SDS011;5324;50.684;3.862;2023-09-30T14:20:52;7.75;;;2.78;;
10550;SDS011;5324;50.684;3.862;2023-09-30T14:23:18;13.90;;;7.18;;
10550;SDS011;5324;50.684;3.862;2023-09-30T14:25:44;13.95;;;6.50;;
10550;SDS011;5324;50.684;3.862;2023-09-30T14:28:11;29.48;;;12.20;;
10550;SDS011;5324;50.684;3.862;2023-09-30T14:30:37;13.40;;;6.85;;
10550;SDS011;5324;50.684;3.862;2023-09-30T14:33:03;7.93;;;3.50;;
10550;SDS011;5324;50.684;3.862;2023-09-30T14:35:29;5.72;;;2.70;;
10550;SDS011;5324;50.684;3.862;2023-09-30T14:37:55;6.05;;;2.78;;
10550;SDS011;5324;50.684;3.862;2023-09-30T14:40:21;7.43;;;3.10;;
10550;SDS011;5324;50.684;3.862;2023-09-30T14:42:47;27.02;;;11.70;;
10550;SDS011;5324;50.684;3.862;2023-09-30T14:45:14;9.98;;;4.63;;
10550;SDS011;5324;50.684;3.862;2023-09-30T14:47:41;6.07;;;2.90;;
10550;SDS011;5324;50.684;3.862;2023-09-30T14:50:08;7.50;;;2.45;;
10550;SDS011;5324;50.684;3.862;2023-09-30T14:52:35;7.85;;;3.47;;
10550;SDS011;5324;50.684;3.862;2023-09-30T14:55:02;14.68;;;5.88;;
10550;SDS011;5324;50.684;3.862;2023-09-30T14:57:29;18.40;;;8.25;;
10550;SDS011;5324;50.684;3.862;2023-09-30T14:59:57;15.90;;;7.05;;
10550;SDS011;5324;50.684;3.862;2023-09-30T15:02:27;9.70;;;4.43;;
10550;SDS011;5324;50.684;3.862;2023-09-30T15:04:53;7.95;;;3.97;;
10550;SDS011;5324;50.684;3.862;2023-09-30T15:07:19;13.00;;;4.90;;
10550;SDS011;5324;50.684;3.862;2023-09-30T15:09:45;8.32;;;4.10;;
10550;SDS011;5324;50.684;3.862;2023-09-30T15:12:11;10.43;;;4.60;;
10550;SDS011;5324;50.684;3.862;2023-09-30T15:14:37;8.85;;;3.60;;
10550;SDS011;5324;50.684;3.862;2023-09-30T15:17:03;9.15;;;3.05;;
10550;SDS011;5324;50.684;3.862;2023-09-30T15:19:30;7.30;;;2.80;;
10550;SDS011;5324;50.684;3.862;2023-09-30T15:21:56;9.73;;;3.28;;
10550;SDS011;5324;50.684;3.862;2023-09-30T15:24:23;6.63;;;2.58;;
10550;SDS011;5324;50.684;3.862;2023-09-30T15:26:49;7.82;;;2.50;;